Time;durP1;ratioP1;P1;durP2;ratioP2;P2;SDS_P1;SDS_P2;PMS_P1;PMS_P2;Temp;Humidity;BMP_temperature;BMP_pressure;BME280_temperature;BME280_humidity;BME280_pressure;Samples;Min_cycle;Max_cycle;Signal;HPM_P1;HPM_P2
2022/08/16 00:02:57;;;;;;;5.07;4.67;;;22.40;99.70;;;;;;6227933;28;20229;-64
2022/08/16 00:06:02;;;;;;;5.83;5.27;;;22.40;99.90;;;;;;6227126;28;20308;-63
2022/08/16 00:09:07;;;;;;;7.70;5.73;;;22.50;99.90;;;;;;6234316;28;20236;-63
2022/08/16 00:12:12;;;;;;;5.50;5.00;;;22.40;99.90;;;;;;6234625;28;20576;-65
2022/08/16 00:15:23;;;;;;;5.17;4.63;;;22.40;99.90;;;;;;6234496;28;20298;-64
2022/08/16 00:18:46;;;;;;;5.90;5.47;;;22.30;99.90;;;;;;6239421;28;20225;-64
2022/08/16 00:21:52;;;;;;;5.50;5.00;;;22.30;99.90;;;;;;6238208;28;20680;-64
2022/08/16 00:25:03;;;;;;;8.03;5.70;;;22.10;99.90;;;;;;6224013;28;20273;-64
2022/08/16 00:28:08;;;;;;;5.50;5.10;;;22.20;99.90;;;;;;6237816;28;20225;-64
2022/08/16 00:31:13;;;;;;;6.03;5.50;;;22.30;99.90;;;;;;6236615;28;20221;-65
2022/08/16 00:34:17;;;;;;;5.70;5.17;;;22.40;99.90;;;;;;6238897;28;20224;-66
2022/08/16 00:37:23;;;;;;;7.20;5.77;;;22.40;99.90;;;;;;6236849;28;20315;-66
2022/08/16 00:40:50;;;;;;;5.20;4.90;;;22.40;99.70;;;;;;6239024;28;20217;-66
2022/08/16 00:43:56;;;;;;;5.63;5.13;;;22.40;99.70;;;;;;6237233;28;20221;-66
2022/08/16 00:47:04;;;;;;;5.50;5.07;;;22.30;99.70;;;;;;6215886;28;20221;-66
2022/08/16 00:50:08;;;;;;;4.90;4.50;;;22.30;99.80;;;;;;6226257;28;20229;-66
2022/08/16 00:53:17;;;;;;;5.93;5.43;;;22.20;99.70;;;;;;6218098;28;20539;-66
2022/08/16 00:56:23;;;;;;;5.80;5.17;;;22.30;99.70;;;;;;6221038;28;20235;-65
2022/08/16 00:59:47;;;;;;;6.10;5.37;;;22.20;99.50;;;;;;6218110;28;20567;-65
2022/08/16 01:03:07;;;;;;;5.10;4.70;;;22.20;99.30;;;;;;6216388;28;20549;-65
2022/08/16 01:06:15;;;;;;;5.33;4.93;;;22.20;99.10;;;;;;6202866;28;20648;-65
2022/08/16 01:09:40;;;;;;;5.03;4.53;;;22.20;99.10;;;;;;6202816;28;20236;-66
2022/08/16 01:12:45;;;;;;;4.57;4.20;;;22.20;98.80;;;;;;6203253;28;20240;-66
2022/08/16 01:15:52;;;;;;;4.50;4.10;;;22.30;98.60;;;;;;6202969;28;20323;-66
2022/08/16 01:18:59;;;;;;;4.90;4.50;;;22.30;98.40;;;;;;6202042;28;20272;-66
2022/08/16 01:22:14;;;;;;;4.80;4.40;;;22.10;98.10;;;;;;6203639;28;20222;-66
2022/08/16 01:25:42;;;;;;;4.20;3.90;;;22.10;98.10;;;;;;6202722;28;20690;-64
2022/08/16 01:28:47;;;;;;;5.20;4.80;;;22.10;97.80;;;;;;6194348;28;20252;-66
2022/08/16 01:31:51;;;;;;;4.50;4.10;;;22.10;97.90;;;;;;6202493;28;20288;-65
2022/08/16 01:34:55;;;;;;;4.87;4.47;;;22.10;97.80;;;;;;6201793;28;20695;-64
2022/08/16 01:38:16;;;;;;;5.30;4.63;;;22.10;97.90;;;;;;6202506;28;20448;-67
2022/08/16 01:41:26;;;;;;;4.47;4.10;;;22.10;98.10;;;;;;6202805;28;20238;-67
2022/08/16 01:44:32;;;;;;;5.00;4.37;;;22.10;98.10;;;;;;6223308;28;20251;-66
2022/08/16 01:47:41;;;;;;;5.33;4.67;;;22.10;98.10;;;;;;6227135;28;20287;-66
2022/08/16 01:50:52;;;;;;;4.77;4.10;;;22.10;97.90;;;;;;6226283;28;20633;-66
2022/08/16 01:54:11;;;;;;;4.60;4.00;;;22.10;98.00;;;;;;6226570;28;20237;-66
2022/08/16 01:57:18;;;;;;;4.67;4.27;;;22.20;98.00;;;;;;6226612;28;20240;-67
2022/08/16 02:00:27;;;;;;;4.73;4.10;;;22.10;97.70;;;;;;6226559;28;20235;-67
2022/08/16 02:03:31;;;;;;;5.30;4.07;;;22.20;97.80;;;;;;6226428;28;20201;-67
2022/08/16 02:06:34;;;;;;;4.37;3.97;;;22.20;97.60;;;;;;6225533;28;20229;-67
2022/08/16 02:09:41;;;;;;;3.60;3.30;;;22.30;97.50;;;;;;6226401;28;20648;-67
2022/08/16 02:12:47;;;;;;;4.37;4.03;;;22.30;97.10;;;;;;6226222;28;20539;-67
2022/08/16 02:15:58;;;;;;;4.50;4.10;;;22.30;97.00;;;;;;6226118;28;20236;-66
2022/08/16 02:19:01;;;;;;;4.80;3.87;;;22.30;96.70;;;;;;6226417;28;20225;-66
2022/08/16 02:22:22;;;;;;;4.50;4.10;;;22.30;96.80;;;;;;6225538;28;20221;-66
2022/08/16 02:25:37;;;;;;;4.57;4.27;;;22.20;96.60;;;;;;6225874;28;20275;-66
2022/08/16 02:28:58;;;;;;;5.70;4.00;;;22.20;96.60;;;;;;6226236;28;20225;-66
2022/08/16 02:32:04;;;;;;;5.10;4.73;;;22.20;96.60;;;;;;6216891;28;20327;-66
2022/08/16 02:35:28;;;;;;;5.60;3.93;;;22.20;96.60;;;;;;6225515;28;20245;-65
2022/08/16 02:38:31;;;;;;;4.60;4.30;;;22.20;96.50;;;;;;6225164;28;20229;-67
2022/08/16 02:41:36;;;;;;;4.83;4.43;;;22.20;96.50;;;;;;6225761;28;20239;-67
2022/08/16 02:44:42;;;;;;;4.83;4.53;;;22.20;96.40;;;;;;6225393;28;20229;-66
2022/08/16 02:47:46;;;;;;;4.57;4.20;;;22.20;96.40;;;;;;6225594;28;20715;-66
2022/08/16 02:51:10;;;;;;;4.30;4.00;;;22.20;96.70;;;;;;6225892;28;20553;-66
2022/08/16 02:54:14;;;;;;;4.60;4.30;;;22.20;96.30;;;;;;6224689;28;20233;-66
2022/08/16 02:57:19;;;;;;;4.37;4.07;;;22.20;96.30;;;;;;6225402;28;20371;-66
2022/08/16 03:00:25;;;;;;;4.87;4.47;;;22.20;96.30;;;;;;6225912;28;20593;-66
2022/08/16 03:03:37;;;;;;;5.50;5.07;;;22.20;96.20;;;;;;6225654;28;20299;-66
2022/08/16 03:07:00;;;;;;;5.83;4.47;;;22.30;96.10;;;;;;6225198;28;20225;-66
2022/08/16 03:10:10;;;;;;;4.67;4.27;;;22.40;96.00;;;;;;6225192;28;20233;-66
2022/08/16 03:13:16;;;;;;;5.43;4.60;;;22.30;95.90;;;;;;6225207;28;20233;-66
2022/08/16 03:16:22;;;;;;;5.23;4.77;;;22.40;95.70;;;;;;6225758;28;20237;-65
2022/08/16 03:19:41;;;;;;;5.63;5.13;;;22.40;95.50;;;;;;6230314;28;20225;-65
2022/08/16 03:23:02;;;;;;;5.70;3.80;;;22.30;95.50;;;;;;6230062;28;20287;-65
2022/08/16 03:26:06;;;;;;;4.10;3.73;;;22.20;95.50;;;;;;6229998;28;20233;-65
2022/08/16 03:29:10;;;;;;;4.90;4.37;;;22.20;95.30;;;;;;6229967;28;20543;-65
2022/08/16 03:32:15;;;;;;;4.57;4.13;;;22.20;95.10;;;;;;6229792;28;20783;-66
2022/08/16 03:35:24;;;;;;;4.77;4.37;;;22.20;95.20;;;;;;6229647;28;20260;-65
2022/08/16 03:38:36;;;;;;;5.97;4.47;;;22.20;95.10;;;;;;6229647;28;20237;-65
2022/08/16 03:41:40;;;;;;;3.90;3.60;;;22.20;94.90;;;;;;6229335;28;20236;-66
2022/08/16 03:44:52;;;;;;;4.30;3.90;;;22.20;94.90;;;;;;6229264;28;20263;-65
2022/08/16 03:48:08;;;;;;;3.80;3.50;;;22.20;94.90;;;;;;6229522;28;20312;-66
2022/08/16 03:51:17;;;;;;;4.90;4.43;;;22.20;94.80;;;;;;6229688;28;20248;-66
2022/08/16 03:54:27;;;;;;;3.90;3.50;;;22.20;94.80;;;;;;6229270;28;20233;-65
2022/08/16 03:57:31;;;;;;;4.30;3.90;;;22.20;94.80;;;;;;6228943;28;20224;-65
2022/08/16 04:00:38;;;;;;;5.30;4.00;;;22.20;94.70;;;;;;6229128;28;20233;-65
2022/08/16 04:03:44;;;;;;;3.90;3.60;;;22.20;94.70;;;;;;6229325;28;20240;-65
2022/08/16 04:06:48;;;;;;;3.97;3.67;;;22.10;94.70;;;;;;6229184;28;20291;-65
2022/08/16 04:09:53;;;;;;;4.30;3.33;;;22.00;94.80;;;;;;6229330;28;20235;-65
2022/08/16 04:12:56;;;;;;;3.93;3.60;;;22.00;94.90;;;;;;6229273;28;20226;-65
2022/08/16 04:16:07;;;;;;;4.27;3.87;;;22.00;94.80;;;;;;6228271;28;20456;-65
2022/08/16 04:19:12;;;;;;;4.60;4.20;;;22.00;94.80;;;;;;6228791;28;20299;-66
2022/08/16 04:22:16;;;;;;;3.90;3.50;;;22.00;94.90;;;;;;6228633;28;20344;-66
2022/08/16 04:25:20;;;;;;;3.97;3.67;;;22.10;94.80;;;;;;6228693;28;20665;-65
2022/08/16 04:28:25;;;;;;;3.80;3.30;;;22.20;94.80;;;;;;6228464;28;20244;-65
2022/08/16 04:31:49;;;;;;;5.03;3.90;;;22.20;94.50;;;;;;6228102;28;20229;-66
2022/08/16 04:35:01;;;;;;;3.63;3.33;;;22.40;94.40;;;;;;6228249;28;20241;-65
2022/08/16 04:38:12;;;;;;;3.90;3.53;;;22.40;94.20;;;;;;6228464;28;20229;-66
2022/08/16 04:41:23;;;;;;;4.13;3.10;;;22.40;94.00;;;;;;6223568;28;20248;-66
2022/08/16 04:44:34;;;;;;;3.27;3.07;;;22.50;93.90;;;;;;6228143;28;20781;-65
2022/08/16 04:47:58;;;;;;;3.97;3.67;;;22.60;93.80;;;;;;6227660;28;20241;-66
2022/08/16 04:51:03;;;;;;;3.50;3.20;;;22.60;93.70;;;;;;6228326;28;20236;-66
2022/08/16 04:54:13;;;;;;;3.83;3.53;;;22.70;93.80;;;;;;6227614;28;20233;-66
2022/08/16 04:57:21;;;;;;;3.67;3.37;;;22.70;93.60;;;;;;6227902;28;20525;-66
2022/08/16 05:00:31;;;;;;;5.30;3.70;;;22.80;93.70;;;;;;6227845;28;20210;-67
2022/08/16 05:03:35;;;;;;;3.90;3.60;;;22.80;93.30;;;;;;6227594;28;20275;-67
2022/08/16 05:06:59;;;;;;;4.73;3.63;;;22.90;93.30;;;;;;6227475;28;20699;-69
2022/08/16 05:10:04;;;;;;;4.07;3.77;;;22.90;93.10;;;;;;6227788;28;20225;-68
2022/08/16 05:13:22;;;;;;;4.20;3.90;;;22.90;93.10;;;;;;6227371;28;20720;-68
2022/08/16 05:16:43;;;;;;;3.90;3.57;;;22.90;93.10;;;;;;6227155;28;20233;-68
2022/08/16 05:19:46;;;;;;;3.77;3.47;;;22.90;93.10;;;;;;6226905;28;20240;-68
2022/08/16 05:23:01;;;;;;;3.53;3.23;;;23.00;92.90;;;;;;6227254;28;20579;-66
2022/08/16 05:26:04;;;;;;;4.13;3.30;;;23.20;92.80;;;;;;6227336;28;20233;-66
2022/08/16 05:29:21;;;;;;;7.80;3.57;;;23.40;92.50;;;;;;6227354;28;20279;-66
2022/08/16 05:32:27;;;;;;;4.50;3.47;;;23.60;92.00;;;;;;6227257;28;20367;-68
2022/08/16 05:35:38;;;;;;;3.47;3.27;;;23.80;91.80;;;;;;6225845;28;20252;-68
2022/08/16 05:38:45;;;;;;;4.20;3.80;;;23.90;91.70;;;;;;6229764;28;20231;-68
2022/08/16 05:41:49;;;;;;;4.17;3.87;;;24.20;91.30;;;;;;6239477;28;20226;-69
2022/08/16 05:44:53;;;;;;;3.67;3.37;;;24.50;90.80;;;;;;6226888;28;20260;-68
2022/08/16 05:48:00;;;;;;;3.47;3.17;;;24.60;90.40;;;;;;6226461;28;20611;-69
2022/08/16 05:51:04;;;;;;;3.80;3.50;;;24.70;90.60;;;;;;6226214;28;20236;-69
2022/08/16 05:54:13;;;;;;;4.40;3.57;;;25.00;90.20;;;;;;6225605;28;20236;-70
2022/08/16 05:57:17;;;;;;;4.20;3.80;;;25.30;88.50;;;;;;6226262;28;20259;-70
2022/08/16 06:00:23;;;;;;;4.30;3.60;;;25.70;86.80;;;;;;6226330;28;20224;-69
2022/08/16 06:03:27;;;;;;;3.50;3.20;;;26.00;85.60;;;;;;6226871;28;20200;-69
2022/08/16 06:06:31;;;;;;;3.50;3.20;;;26.40;84.10;;;;;;6226859;28;20670;-70
2022/08/16 06:09:38;;;;;;;5.53;3.60;;;26.90;81.80;;;;;;6226291;28;20204;-70
2022/08/16 06:12:45;;;;;;;3.60;3.30;;;27.60;79.70;;;;;;6226972;28;20624;-69
2022/08/16 06:15:54;;;;;;;3.93;2.93;;;28.20;77.70;;;;;;6225764;28;20232;-69
2022/08/16 06:18:57;;;;;;;4.43;3.63;;;28.40;74.60;;;;;;6225654;28;20672;-68
2022/08/16 06:22:06;;;;;;;5.87;3.23;;;28.70;73.10;;;;;;6225915;28;20303;-68
2022/08/16 06:25:12;;;;;;;5.30;3.63;;;29.00;72.00;;;;;;6225862;28;20233;-68
2022/08/16 06:28:17;;;;;;;3.37;3.17;;;28.90;70.30;;;;;;6226176;28;20244;-68
2022/08/16 06:31:39;;;;;;;5.10;3.87;;;28.80;71.00;;;;;;6239850;28;20227;-68
2022/08/16 06:34:52;;;;;;;3.50;3.20;;;28.90;69.80;;;;;;6249203;28;20224;-68
2022/08/16 06:38:04;;;;;;;4.33;4.03;;;28.80;69.90;;;;;;6246811;28;20682;-68
2022/08/16 06:41:28;;;;;;;4.10;3.80;;;28.80;70.10;;;;;;6236377;28;20243;-68
2022/08/16 06:44:42;;;;;;;4.20;3.13;;;28.90;69.50;;;;;;6244586;28;20238;-68
2022/08/16 06:47:45;;;;;;;3.33;3.13;;;29.10;68.60;;;;;;6245982;28;20238;-68
2022/08/16 06:50:58;;;;;;;4.10;3.50;;;28.90;68.20;;;;;;6250136;28;20321;-68
2022/08/16 06:54:01;;;;;;;5.10;3.53;;;28.40;68.90;;;;;;6249813;28;20262;-66
2022/08/16 06:57:06;;;;;;;4.10;3.70;;;28.00;70.20;;;;;;6249713;28;20556;-67
2022/08/16 07:00:18;;;;;;;3.63;3.20;;;27.70;70.90;;;;;;6249941;28;20310;-67
2022/08/16 07:03:27;;;;;;;3.67;3.37;;;27.50;72.20;;;;;;6249974;28;20564;-67
2022/08/16 07:06:34;;;;;;;5.80;3.60;;;27.30;72.80;;;;;;6249572;28;20735;-66
2022/08/16 07:09:38;;;;;;;3.50;3.20;;;27.20;73.10;;;;;;6249532;28;20577;-67
2022/08/16 07:12:49;;;;;;;4.77;4.17;;;27.00;73.80;;;;;;6250396;28;20223;-66
2022/08/16 07:16:15;;;;;;;3.80;3.40;;;26.90;74.10;;;;;;6249198;28;20228;-68
2022/08/16 07:19:22;;;;;;;3.77;3.20;;;26.90;74.50;;;;;;6249597;28;20236;-67
2022/08/16 07:22:45;;;;;;;3.57;3.27;;;26.90;74.70;;;;;;6249345;28;20243;-67
2022/08/16 07:26:01;;;;;;;3.30;3.00;;;26.90;74.00;;;;;;6249659;28;20370;-67
2022/08/16 07:29:05;;;;;;;8.80;4.00;;;26.80;74.10;;;;;;6249383;28;20731;-67
2022/08/16 07:32:10;;;;;;;4.40;4.10;;;26.80;74.30;;;;;;6243482;28;20220;-67
2022/08/16 07:35:13;;;;;;;4.47;4.00;;;26.70;74.80;;;;;;6248771;28;20243;-67
2022/08/16 07:38:17;;;;;;;3.97;3.40;;;26.70;74.60;;;;;;6226141;28;20228;-66
2022/08/16 07:41:22;;;;;;;4.37;3.53;;;26.70;74.70;;;;;;6234382;28;20231;-67
2022/08/16 07:44:27;;;;;;;7.13;3.57;;;26.60;75.20;;;;;;6249405;28;20693;-67
2022/08/16 07:47:50;;;;;;;4.87;4.47;;;26.50;75.50;;;;;;6231683;28;20239;-65
2022/08/16 07:50:54;;;;;;;4.30;4.00;;;26.40;75.70;;;;;;6223186;28;20229;-65
2022/08/16 07:54:03;;;;;;;5.20;4.57;;;26.40;76.20;;;;;;6213062;28;20247;-65
2022/08/16 07:57:12;;;;;;;6.07;3.67;;;26.40;76.90;;;;;;6232647;28;20233;-64
2022/08/16 08:00:17;;;;;;;3.60;3.30;;;26.40;77.00;;;;;;6235489;28;20231;-65
2022/08/16 08:03:21;;;;;;;4.13;3.33;;;26.40;76.50;;;;;;6228285;28;20216;-65
2022/08/16 08:06:38;;;;;;;3.87;3.57;;;26.40;75.90;;;;;;6228681;28;20311;-65
2022/08/16 08:09:41;;;;;;;3.73;3.43;;;26.40;76.20;;;;;;6228624;28;20229;-65
2022/08/16 08:12:47;;;;;;;3.70;3.40;;;26.80;75.50;;;;;;6228920;28;20303;-65
2022/08/16 08:15:53;;;;;;;3.97;3.70;;;27.10;74.70;;;;;;6228349;28;20236;-65
2022/08/16 08:18:57;;;;;;;4.60;4.20;;;27.30;73.90;;;;;;6228978;28;20228;-64
2022/08/16 08:22:04;;;;;;;4.77;3.60;;;27.50;73.50;;;;;;6228679;28;20240;-64
2022/08/16 08:25:09;;;;;;;4.63;3.93;;;27.40;74.40;;;;;;6228392;28;20234;-65
2022/08/16 08:28:15;;;;;;;4.63;3.70;;;27.60;73.50;;;;;;6228989;28;20358;-64
2022/08/16 08:31:20;;;;;;;5.13;4.13;;;27.70;72.60;;;;;;6228166;28;20239;-65
2022/08/16 08:34:23;;;;;;;4.03;3.73;;;28.00;71.80;;;;;;6227832;28;20550;-67
2022/08/16 08:37:27;;;;;;;4.40;3.70;;;28.20;70.80;;;;;;6228098;28;20232;-64
2022/08/16 08:40:50;;;;;;;5.07;4.47;;;28.60;69.20;;;;;;6228121;28;20243;-65
2022/08/16 08:43:53;;;;;;;6.33;4.13;;;29.20;67.50;;;;;;6227619;28;20684;-65
2022/08/16 08:46:58;;;;;;;5.97;4.15;;;30.10;65.00;;;;;;6227733;28;20232;-65
2022/08/16 08:50:05;;;;;;;5.03;3.78;;;31.00;62.70;;;;;;6228158;28;20235;-65
2022/08/16 08:53:09;;;;;;;5.38;3.83;;;32.10;58.50;;;;;;6227649;28;20224;-66
2022/08/16 08:56:15;;;;;;;4.53;4.00;;;32.60;56.80;;;;;;6222890;28;20232;-67
2022/08/16 08:59:27;;;;;;;4.15;3.85;;;33.10;55.10;;;;;;6228079;28;20239;-66
2022/08/16 09:02:31;;;;;;;4.10;3.70;;;34.00;53.90;;;;;;6227267;28;20649;-66
2022/08/16 09:05:35;;;;;;;4.18;3.78;;;35.70;49.40;;;;;;6227482;28;20652;-65
2022/08/16 09:08:39;;;;;;;3.97;3.42;;;35.90;47.80;;;;;;6227273;28;20239;-65
2022/08/16 09:11:49;;;;;;;3.75;3.45;;;36.00;47.20;;;;;;6227270;28;20232;-65
2022/08/16 09:15:08;;;;;;;3.90;3.60;;;36.50;46.80;;;;;;6225901;28;20291;-66
2022/08/16 09:18:17;;;;;;;4.70;3.58;;;35.90;45.80;;;;;;6227308;28;20228;-68
2022/08/16 09:21:27;;;;;;;3.78;3.47;;;36.00;45.70;;;;;;6227219;28;20240;-69
2022/08/16 09:24:33;;;;;;;3.55;3.25;;;36.10;45.50;;;;;;6227510;28;20224;-68
2022/08/16 09:27:55;;;;;;;3.95;3.60;;;36.10;44.70;;;;;;6227245;28;20258;-68
2022/08/16 09:31:05;;;;;;;3.95;3.55;;;36.20;44.50;;;;;;6227409;28;20232;-68
2022/08/16 09:34:09;;;;;;;4.53;4.22;;;36.10;43.60;;;;;;6227208;28;20707;-68
2022/08/16 09:37:19;;;;;;;4.20;3.90;;;35.70;43.70;;;;;;6226918;28;20282;-67
2022/08/16 09:40:31;;;;;;;4.18;3.88;;;35.30;44.50;;;;;;6227493;28;20251;-68
2022/08/16 09:43:45;;;;;;;3.88;3.58;;;35.30;43.30;;;;;;6228863;28;20233;-68
2022/08/16 09:47:04;;;;;;;4.38;4.05;;;35.10;43.50;;;;;;6226054;28;20569;-68
2022/08/16 09:50:14;;;;;;;4.43;4.13;;;34.90;43.60;;;;;;6225140;28;20233;-68
2022/08/16 09:53:25;;;;;;;4.45;4.15;;;34.70;43.80;;;;;;6235013;28;20275;-68
2022/08/16 09:56:31;;;;;;;5.13;4.72;;;34.60;44.10;;;;;;6233848;28;20243;-68
2022/08/16 09:59:35;;;;;;;4.63;4.22;;;34.60;44.00;;;;;;6233015;28;20537;-68
2022/08/16 10:02:43;;;;;;;4.95;4.55;;;34.40;43.90;;;;;;6239875;28;20239;-68
2022/08/16 10:05:52;;;;;;;4.88;4.47;;;34.10;44.40;;;;;;6244955;28;20242;-67
2022/08/16 10:08:55;;;;;;;4.90;4.40;;;34.00;44.10;;;;;;6250379;28;20232;-67
2022/08/16 10:15:31;;;;;;;4.90;4.60;;;33.80;44.70;;;;;;6234531;28;20229;-67
2022/08/16 10:18:34;;;;;;;4.70;4.30;;;33.70;45.10;;;;;;6239082;28;20210;-67
2022/08/16 10:21:59;;;;;;;4.82;4.43;;;33.60;44.60;;;;;;6238202;28;20235;-67
2022/08/16 10:25:08;;;;;;;5.35;4.95;;;33.50;45.00;;;;;;6235736;28;20221;-67
2022/08/16 10:28:13;;;;;;;5.18;4.78;;;33.40;45.00;;;;;;6237772;28;20575;-67
2022/08/16 10:31:31;;;;;;;4.60;4.30;;;33.40;45.00;;;;;;6238247;28;20220;-68
2022/08/16 10:34:48;;;;;;;5.30;4.90;;;33.30;45.20;;;;;;6235207;28;20648;-67
2022/08/16 10:37:55;;;;;;;6.65;4.72;;;33.10;45.40;;;;;;6236419;28;20648;-67
2022/08/16 10:40:59;;;;;;;5.60;5.20;;;33.10;45.60;;;;;;6237036;28;20238;-68
2022/08/16 10:44:03;;;;;;;5.30;4.80;;;33.10;45.60;;;;;;6239211;28;20231;-68
2022/08/16 10:47:11;;;;;;;5.93;5.43;;;33.10;45.60;;;;;;6237854;28;20577;-68
2022/08/16 10:50:14;;;;;;;5.05;4.65;;;33.00;45.70;;;;;;6236034;28;20671;-68
2022/08/16 10:53:23;;;;;;;4.85;4.45;;;33.00;46.10;;;;;;6233623;28;20275;-68
2022/08/16 10:56:35;;;;;;;5.70;5.20;;;33.00;45.30;;;;;;6236874;28;20698;-68
2022/08/16 10:59:55;;;;;;;5.18;4.78;;;33.00;44.80;;;;;;6235559;28;20221;-69
2022/08/16 11:03:01;;;;;;;5.65;4.90;;;33.00;44.80;;;;;;6238943;28;20237;-69
2022/08/16 11:06:07;;;;;;;4.88;4.43;;;32.90;44.60;;;;;;6228439;28;20618;-68
2022/08/16 11:09:15;;;;;;;5.70;5.10;;;32.90;44.80;;;;;;6239785;28;20231;-68
2022/08/16 11:12:30;;;;;;;5.18;4.78;;;33.20;45.00;;;;;;6234535;28;20258;-68
2022/08/16 11:15:35;;;;;;;5.70;5.30;;;33.30;44.90;;;;;;6237114;28;20216;-68
2022/08/16 11:18:38;;;;;;;5.45;5.05;;;33.30;44.80;;;;;;6237968;28;20215;-68
2022/08/16 11:22:01;;;;;;;5.97;5.57;;;33.30;45.00;;;;;;6235528;28;20220;-68
2022/08/16 11:25:28;;;;;;;6.53;5.45;;;33.30;45.00;;;;;;6234597;28;20228;-67
2022/08/16 11:28:52;;;;;;;5.50;5.10;;;33.20;45.00;;;;;;6233007;28;20232;-68
2022/08/16 11:32:16;;;;;;;5.90;5.50;;;32.60;45.60;;;;;;6236490;28;20676;-67
2022/08/16 11:35:28;;;;;;;6.20;5.70;;;32.30;46.40;;;;;;6228834;28;20247;-67
2022/08/16 11:38:51;;;;;;;6.30;5.82;;;32.60;46.60;;;;;;6227518;28;20551;-67
2022/08/16 11:42:01;;;;;;;5.38;4.97;;;32.80;46.50;;;;;;6229446;28;20470;-67
2022/08/16 11:45:19;;;;;;;6.85;5.75;;;33.00;45.60;;;;;;6229953;28;20311;-68
2022/08/16 11:48:24;;;;;;;4.85;4.50;;;33.00;46.30;;;;;;6229960;28;20379;-67
2022/08/16 11:51:27;;;;;;;6.43;5.32;;;32.90;45.80;;;;;;6230073;28;20208;-67
2022/08/16 11:54:30;;;;;;;5.88;5.47;;;33.00;45.70;;;;;;6230525;28;20231;-68
2022/08/16 11:57:40;;;;;;;6.47;6.00;;;33.00;45.90;;;;;;6230620;28;20209;-67
2022/08/16 12:00:45;;;;;;;6.47;5.90;;;33.00;46.30;;;;;;6230135;28;20224;-67
2022/08/16 12:03:55;;;;;;;6.28;5.78;;;33.10;45.30;;;;;;6230531;28;20235;-67
2022/08/16 12:06:59;;;;;;;7.03;6.38;;;33.10;45.50;;;;;;6225754;28;20228;-67
2022/08/16 12:10:05;;;;;;;6.85;6.35;;;32.70;45.70;;;;;;6229934;28;20239;-67
2022/08/16 12:13:11;;;;;;;6.50;6.05;;;31.90;47.00;;;;;;6230616;28;20228;-67
2022/08/16 12:16:18;;;;;;;6.53;6.10;;;32.10;47.00;;;;;;6229787;28;20597;-66
2022/08/16 12:19:23;;;;;;;5.82;5.43;;;32.10;47.00;;;;;;6229275;28;20244;-67
2022/08/16 12:22:38;;;;;;;6.15;5.75;;;32.40;46.80;;;;;;6229370;28;20371;-67
2022/08/16 12:25:43;;;;;;;6.10;5.53;;;32.70;46.50;;;;;;6229145;28;20247;-67
2022/08/16 12:28:49;;;;;;;6.05;5.45;;;33.00;47.60;;;;;;6234475;28;20223;-66
2022/08/16 12:31:58;;;;;;;6.38;5.60;;;33.30;48.60;;;;;;6229799;28;20224;-67
2022/08/16 12:35:23;;;;;;;6.72;4.93;;;33.50;47.20;;;;;;6222627;28;20233;-68
2022/08/16 12:38:28;;;;;;;5.00;4.70;;;33.30;47.30;;;;;;6238711;28;20263;-67
2022/08/16 12:41:50;;;;;;;5.35;4.95;;;33.20;47.00;;;;;;6228718;28;20228;-68
2022/08/16 12:44:55;;;;;;;5.75;5.38;;;33.00;47.10;;;;;;6230668;28;20254;-66
2022/08/16 12:51:40;;;;;;;6.13;5.72;;;33.10;46.50;;;;;;6228749;28;20232;-67
2022/08/16 12:55:02;;;;;;;5.63;5.13;;;33.20;46.60;;;;;;6228558;28;20236;-66
2022/08/16 12:58:05;;;;;;;5.90;5.38;;;33.30;46.30;;;;;;6229124;28;20232;-67
2022/08/16 13:01:32;;;;;;;5.82;5.32;;;33.20;46.60;;;;;;6229317;28;20228;-67
2022/08/16 13:04:36;;;;;;;6.97;5.35;;;33.40;46.40;;;;;;6252452;28;20718;-69
2022/08/16 13:07:42;;;;;;;6.07;5.57;;;33.70;46.30;;;;;;6246208;28;20223;-66
2022/08/16 13:10:54;;;;;;;6.72;6.25;;;33.80;46.10;;;;;;6203547;28;20700;-68
2022/08/16 13:13:57;;;;;;;6.57;6.07;;;33.60;45.50;;;;;;6203558;28;20323;-71
2022/08/16 13:17:05;;;;;;;6.13;5.72;;;33.30;45.90;;;;;;6202860;28;20233;-68
2022/08/16 13:20:11;;;;;;;6.30;5.80;;;33.10;46.50;;;;;;6208176;28;20295;-67
2022/08/16 13:23:16;;;;;;;5.68;5.28;;;32.90;45.60;;;;;;6226727;28;20236;-65
2022/08/16 13:26:19;;;;;;;6.55;6.05;;;32.60;46.10;;;;;;6227287;28;20607;-65
2022/08/16 13:29:23;;;;;;;5.85;5.45;;;32.50;46.80;;;;;;6226459;28;20246;-67
2022/08/16 13:32:27;;;;;;;6.13;5.63;;;32.60;47.60;;;;;;6226461;28;20247;-65
2022/08/16 13:35:44;;;;;;;6.75;6.03;;;32.60;47.60;;;;;;6226022;28;20263;-66
2022/08/16 13:38:58;;;;;;;5.88;5.47;;;32.60;47.30;;;;;;6226463;28;20660;-66
2022/08/16 13:42:03;;;;;;;6.32;5.93;;;32.60;47.40;;;;;;6226775;28;20374;-67
2022/08/16 13:45:08;;;;;;;5.68;5.28;;;32.60;47.10;;;;;;6226375;28;20247;-67
2022/08/16 13:48:18;;;;;;;6.32;5.82;;;32.70;47.90;;;;;;6226738;28;20220;-67
2022/08/16 13:51:29;;;;;;;8.80;6.00;;;32.60;48.50;;;;;;6226226;28;20232;-66
2022/08/16 13:54:32;;;;;;;4.85;4.55;;;32.40;48.50;;;;;;6227217;28;20220;-66
2022/08/16 13:57:36;;;;;;;6.40;5.72;;;32.40;48.70;;;;;;6226351;28;20225;-67
2022/08/16 14:00:56;;;;;;;5.97;5.50;;;32.30;48.60;;;;;;6225755;28;20233;-67
2022/08/16 14:04:01;;;;;;;6.28;5.72;;;32.10;49.10;;;;;;6225872;28;20235;-68
2022/08/16 14:07:08;;;;;;;6.10;5.70;;;32.00;48.80;;;;;;6226577;28;20224;-68
2022/08/16 14:10:13;;;;;;;5.78;5.38;;;31.90;48.80;;;;;;6226414;28;20229;-68
2022/08/16 14:13:17;;;;;;;5.78;5.30;;;31.90;48.70;;;;;;6226843;28;20309;-66
2022/08/16 14:16:23;;;;;;;5.45;5.10;;;31.70;49.00;;;;;;6217783;28;20246;-64
2022/08/16 14:19:37;;;;;;;6.30;5.68;;;31.50;49.50;;;;;;6226247;28;20316;-64
2022/08/16 14:22:47;;;;;;;6.10;5.55;;;31.40;49.50;;;;;;6226638;28;20237;-66
2022/08/16 14:25:57;;;;;;;5.60;5.20;;;31.40;49.10;;;;;;6231782;28;20229;-65
2022/08/16 14:29:00;;;;;;;5.22;4.80;;;31.30;49.00;;;;;;6231378;28;20215;-64
2022/08/16 14:32:06;;;;;;;5.20;4.80;;;31.30;49.10;;;;;;6223292;28;20310;-65
2022/08/16 14:35:17;;;;;;;6.78;6.18;;;31.30;49.00;;;;;;6225041;28;20315;-68
2022/08/16 14:38:20;;;;;;;5.47;5.07;;;31.20;49.20;;;;;;6224807;28;20236;-67
2022/08/16 14:41:26;;;;;;;5.65;5.20;;;31.20;49.50;;;;;;6225105;28;20234;-66
2022/08/16 14:44:30;;;;;;;5.50;5.10;;;31.10;48.90;;;;;;6224986;28;20220;-66
2022/08/16 14:47:35;;;;;;;5.55;5.15;;;30.90;48.30;;;;;;6224162;28;20379;-66
2022/08/16 14:50:40;;;;;;;5.30;4.90;;;30.90;47.90;;;;;;6224183;28;20256;-69
2022/08/16 14:53:44;;;;;;;5.15;4.63;;;30.80;48.10;;;;;;6224039;28;20570;-66
2022/08/16 14:56:54;;;;;;;5.07;4.57;;;30.70;47.40;;;;;;6224797;28;20246;-67
2022/08/16 14:59:57;;;;;;;4.82;4.43;;;30.90;47.40;;;;;;6224294;28;20236;-67
2022/08/16 15:03:09;;;;;;;5.13;4.72;;;31.10;47.30;;;;;;6222741;28;20266;-65
2022/08/16 15:06:14;;;;;;;7.32;5.25;;;31.20;47.10;;;;;;6225261;28;20242;-67
2022/08/16 15:09:18;;;;;;;5.60;5.20;;;31.30;47.40;;;;;;6225045;28;20225;-66
2022/08/16 15:12:26;;;;;;;6.90;6.38;;;31.40;47.20;;;;;;6225401;28;20238;-66
2022/08/16 15:15:36;;;;;;;5.80;5.05;;;31.50;47.20;;;;;;6229864;28;20232;-68
2022/08/16 15:18:40;;;;;;;5.70;5.20;;;31.50;47.50;;;;;;6225020;28;20223;-66
2022/08/16 15:21:49;;;;;;;5.47;5.07;;;31.50;47.90;;;;;;6230249;28;20285;-69
2022/08/16 15:24:58;;;;;;;6.03;5.57;;;31.50;47.60;;;;;;6230324;28;20227;-71
2022/08/16 15:28:04;;;;;;;5.85;5.43;;;31.60;47.90;;;;;;6230170;28;20232;-68
2022/08/16 15:31:27;;;;;;;5.85;5.35;;;31.70;47.60;;;;;;6229600;28;20242;-68
2022/08/16 15:34:30;;;;;;;6.53;5.93;;;31.60;47.90;;;;;;6229601;28;20224;-71
2022/08/16 15:37:36;;;;;;;5.47;5.07;;;31.50;48.20;;;;;;6229481;28;20244;-69
2022/08/16 15:40:45;;;;;;;6.45;6.00;;;31.50;48.50;;;;;;6230058;28;20232;-69
2022/08/16 15:44:01;;;;;;;6.75;5.82;;;31.40;48.80;;;;;;6229150;28;20297;-70
2022/08/16 15:47:10;;;;;;;6.85;6.25;;;31.10;49.10;;;;;;6230670;28;20236;-66
2022/08/16 15:50:14;;;;;;;6.80;6.30;;;31.00;49.50;;;;;;6229174;28;20383;-67
2022/08/16 15:53:23;;;;;;;6.45;6.05;;;30.60;50.20;;;;;;6227187;28;20614;-67
2022/08/16 15:56:26;;;;;;;6.80;6.30;;;30.30;50.80;;;;;;6228883;28;20229;-67
2022/08/16 15:59:30;;;;;;;6.95;6.45;;;30.30;51.00;;;;;;6228778;28;20676;-68
2022/08/16 16:03:00;;;;;;;5.93;5.47;;;30.30;51.10;;;;;;6228617;28;20266;-67
2022/08/16 16:06:04;;;;;;;6.65;5.80;;;30.50;51.20;;;;;;6229001;28;20251;-67
2022/08/16 16:09:10;;;;;;;5.93;5.53;;;30.60;50.80;;;;;;6228069;28;20226;-67
2022/08/16 16:12:14;;;;;;;6.47;6.00;;;30.70;50.50;;;;;;6204179;28;20233;-67
2022/08/16 16:15:39;;;;;;;7.88;7.28;;;30.80;50.70;;;;;;6202920;28;20240;-69
2022/08/16 16:18:43;;;;;;;6.55;6.15;;;30.60;51.20;;;;;;6230332;28;20208;-66
2022/08/16 16:21:51;;;;;;;6.70;6.20;;;30.70;51.10;;;;;;6252857;28;20257;-66
2022/08/16 16:24:57;;;;;;;5.88;5.47;;;30.80;51.00;;;;;;6247888;28;20228;-66
2022/08/16 16:28:01;;;;;;;6.13;5.55;;;30.90;50.60;;;;;;6253219;28;20223;-66
2022/08/16 16:31:07;;;;;;;6.63;6.07;;;30.90;50.40;;;;;;6253435;28;20229;-66
2022/08/16 16:34:11;;;;;;;6.35;5.85;;;30.70;50.80;;;;;;6252050;28;20557;-66